sensor_id;sensor_type;location;lat;lon;timestamp;P1;durP1;ratioP1;P2;durP2;ratioP2
32451;SDS011;45528;52.102;5.242;2022-08-19T00:01:21;6.0;;;5.0;;
32451;SDS011;45528;52.102;5.242;2022-08-19T00:02:58;6.7;;;5.5;;
32451;SDS011;45528;52.102;5.242;2022-08-19T00:06:12;5.6;;;4.8;;
32451;SDS011;45528;52.102;5.242;2022-08-19T00:07:49;6.3;;;4.61;;
32451;SDS011;45528;52.102;5.242;2022-08-19T00:09:26;6.3;;;4.3;;
32451;SDS011;45528;52.102;5.242;2022-08-19T00:12:41;7.7;;;4.91;;
32451;SDS011;45528;52.102;5.242;2022-08-19T00:14:18;5.3;;;4.41;;
32451;SDS011;45528;52.102;5.242;2022-08-19T00:15:55;5.8;;;5.0;;
32451;SDS011;45528;52.102;5.242;2022-08-19T00:17:31;5.5;;;4.41;;
32451;SDS011;45528;52.102;5.242;2022-08-19T00:20:45;6.5;;;4.7;;
32451;SDS011;45528;52.102;5.242;2022-08-19T00:22:20;6.9;;;5.0;;
32451;SDS011;45528;52.102;5.242;2022-08-19T00:23:58;5.2;;;4.61;;
32451;SDS011;45528;52.102;5.242;2022-08-19T00:27:12;7.1;;;4.8;;
32451;SDS011;45528;52.102;5.242;2022-08-19T00:28:49;5.5;;;4.61;;
32451;SDS011;45528;52.102;5.242;2022-08-19T00:30:27;5.4;;;4.5;;
32451;SDS011;45528;52.102;5.242;2022-08-19T00:32:04;6.3;;;4.61;;
32451;SDS011;45528;52.102;5.242;2022-08-19T00:35:18;6.5;;;5.0;;
32451;SDS011;45528;52.102;5.242;2022-08-19T00:36:54;6.6;;;5.0;;
32451;SDS011;45528;52.102;5.242;2022-08-19T00:38:31;5.0;;;4.5;;
32451;SDS011;45528;52.102;5.242;2022-08-19T00:41:49;7.4;;;5.0;;
32451;SDS011;45528;52.102;5.242;2022-08-19T00:43:27;6.9;;;4.91;;
32451;SDS011;45528;52.102;5.242;2022-08-19T00:45:05;6.0;;;4.7;;
32451;SDS011;45528;52.102;5.242;2022-08-19T00:46:47;5.9;;;4.8;;
32451;SDS011;45528;52.102;5.242;2022-08-19T00:50:03;6.1;;;4.8;;
32451;SDS011;45528;52.102;5.242;2022-08-19T00:51:41;6.1;;;4.3;;
32451;SDS011;45528;52.102;5.242;2022-08-19T00:53:21;6.4;;;4.7;;
32451;SDS011;45528;52.102;5.242;2022-08-19T00:55:04;5.6;;;5.0;;
32451;SDS011;45528;52.102;5.242;2022-08-19T00:58:22;5.9;;;4.91;;
32451;SDS011;45528;52.102;5.242;2022-08-19T01:00:06;5.7;;;5.11;;
32451;SDS011;45528;52.102;5.242;2022-08-19T01:01:45;6.6;;;5.0;;
32451;SDS011;45528;52.102;5.242;2022-08-19T01:05:00;6.5;;;4.8;;
32451;SDS011;45528;52.102;5.242;2022-08-19T01:06:41;5.4;;;4.61;;
32451;SDS011;45528;52.102;5.242;2022-08-19T01:08:17;6.9;;;5.3;;
32451;SDS011;45528;52.102;5.242;2022-08-19T01:09:55;5.5;;;4.91;;
32451;SDS011;45528;52.102;5.242;2022-08-19T01:13:19;5.9;;;5.0;;
32451;SDS011;45528;52.102;5.242;2022-08-19T01:14:59;5.6;;;4.8;;
32451;SDS011;45528;52.102;5.242;2022-08-19T01:16:35;6.4;;;5.0;;
32451;SDS011;45528;52.102;5.242;2022-08-19T01:18:15;6.1;;;4.91;;
32451;SDS011;45528;52.102;5.242;2022-08-19T01:21:30;6.6;;;4.91;;
32451;SDS011;45528;52.102;5.242;2022-08-19T01:23:20;7.3;;;5.2;;
32451;SDS011;45528;52.102;5.242;2022-08-19T01:24:56;8.0;;;4.7;;
32451;SDS011;45528;52.102;5.242;2022-08-19T01:26:37;7.2;;;5.11;;
32451;SDS011;45528;52.102;5.242;2022-08-19T01:29:54;7.5;;;4.61;;
32451;SDS011;45528;52.102;5.242;2022-08-19T01:31:31;6.2;;;5.4;;
32451;SDS011;45528;52.102;5.242;2022-08-19T01:33:07;6.9;;;4.91;;
32451;SDS011;45528;52.102;5.242;2022-08-19T01:36:23;5.5;;;4.91;;
32451;SDS011;45528;52.102;5.242;2022-08-19T01:38:08;6.5;;;4.5;;
32451;SDS011;45528;52.102;5.242;2022-08-19T01:39:46;6.5;;;4.8;;
32451;SDS011;45528;52.102;5.242;2022-08-19T01:41:23;8.1;;;5.11;;
32451;SDS011;45528;52.102;5.242;2022-08-19T01:44:37;5.3;;;4.41;;
32451;SDS011;45528;52.102;5.242;2022-08-19T01:46:15;5.8;;;4.8;;
32451;SDS011;45528;52.102;5.242;2022-08-19T01:47:52;5.4;;;4.8;;
32451;SDS011;45528;52.102;5.242;2022-08-19T01:49:29;7.7;;;4.7;;
32451;SDS011;45528;52.102;5.242;2022-08-19T01:52:45;5.2;;;4.2;;
32451;SDS011;45528;52.102;5.242;2022-08-19T01:54:22;5.2;;;4.7;;
32451;SDS011;45528;52.102;5.242;2022-08-19T01:56:00;6.1;;;4.2;;
32451;SDS011;45528;52.102;5.242;2022-08-19T01:59:20;4.91;;;4.2;;
32451;SDS011;45528;52.102;5.242;2022-08-19T02:00:59;6.4;;;4.61;;
32451;SDS011;45528;52.102;5.242;2022-08-19T02:02:36;6.6;;;4.3;;
32451;SDS011;45528;52.102;5.242;2022-08-19T02:04:12;6.0;;;5.4;;
32451;SDS011;45528;52.102;5.242;2022-08-19T02:07:32;5.5;;;4.8;;
32451;SDS011;45528;52.102;5.242;2022-08-19T02:09:08;7.6;;;4.8;;
32451;SDS011;45528;52.102;5.242;2022-08-19T02:10:45;8.0;;;5.3;;
32451;SDS011;45528;52.102;5.242;2022-08-19T02:13:58;8.0;;;5.3;;
32451;SDS011;45528;52.102;5.242;2022-08-19T02:15:36;7.8;;;5.5;;
32451;SDS011;45528;52.102;5.242;2022-08-19T02:17:13;5.7;;;5.0;;
32451;SDS011;45528;52.102;5.242;2022-08-19T02:18:50;6.0;;;5.0;;
32451;SDS011;45528;52.102;5.242;2022-08-19T02:22:03;6.2;;;5.3;;
32451;SDS011;45528;52.102;5.242;2022-08-19T02:23:40;5.4;;;4.7;;
32451;SDS011;45528;52.102;5.242;2022-08-19T02:25:16;7.0;;;5.4;;
32451;SDS011;45528;52.102;5.242;2022-08-19T02:28:29;7.9;;;6.2;;
32451;SDS011;45528;52.102;5.242;2022-08-19T02:30:06;11.1;;;8.4;;
32451;SDS011;45528;52.102;5.242;2022-08-19T02:31:47;11.6;;;9.31;;
32451;SDS011;45528;52.102;5.242;2022-08-19T02:33:23;10.3;;;8.6;;
32451;SDS011;45528;52.102;5.242;2022-08-19T02:36:36;9.6;;;8.0;;
32451;SDS011;45528;52.102;5.242;2022-08-19T02:38:29;11.9;;;7.7;;
32451;SDS011;45528;52.102;5.242;2022-08-19T02:40:06;8.81;;;7.6;;
32451;SDS011;45528;52.102;5.242;2022-08-19T02:43:20;11.9;;;9.9;;
32451;SDS011;45528;52.102;5.242;2022-08-19T02:44:58;10.6;;;9.1;;
32451;SDS011;45528;52.102;5.242;2022-08-19T02:46:34;11.3;;;8.71;;
32451;SDS011;45528;52.102;5.242;2022-08-19T02:48:11;13.4;;;9.81;;
32451;SDS011;45528;52.102;5.242;2022-08-19T02:51:26;11.1;;;8.9;;
32451;SDS011;45528;52.102;5.242;2022-08-19T02:53:08;12.3;;;9.4;;
32451;SDS011;45528;52.102;5.242;2022-08-19T02:54:45;12.3;;;9.5;;
32451;SDS011;45528;52.102;5.242;2022-08-19T02:57:59;12.5;;;9.9;;
32451;SDS011;45528;52.102;5.242;2022-08-19T02:59:36;12.8;;;9.9;;
32451;SDS011;45528;52.102;5.242;2022-08-19T03:01:19;13.4;;;9.9;;
32451;SDS011;45528;52.102;5.242;2022-08-19T03:02:57;13.5;;;9.81;;
32451;SDS011;45528;52.102;5.242;2022-08-19T03:06:11;12.6;;;9.4;;
32451;SDS011;45528;52.102;5.242;2022-08-19T03:07:49;11.9;;;9.0;;
32451;SDS011;45528;52.102;5.242;2022-08-19T03:09:25;10.7;;;8.0;;
32451;SDS011;45528;52.102;5.242;2022-08-19T03:11:03;10.5;;;8.5;;
32451;SDS011;45528;52.102;5.242;2022-08-19T03:14:18;11.6;;;8.5;;
32451;SDS011;45528;52.102;5.242;2022-08-19T03:15:54;10.3;;;8.6;;
32451;SDS011;45528;52.102;5.242;2022-08-19T03:17:30;11.3;;;8.1;;
32451;SDS011;45528;52.102;5.242;2022-08-19T03:20:43;11.6;;;8.31;;
32451;SDS011;45528;52.102;5.242;2022-08-19T03:22:21;10.3;;;8.6;;
32451;SDS011;45528;52.102;5.242;2022-08-19T03:24:01;11.5;;;8.1;;
32451;SDS011;45528;52.102;5.242;2022-08-19T03:25:43;10.21;;;8.31;;
32451;SDS011;45528;52.102;5.242;2022-08-19T03:29:02;9.31;;;7.9;;
32451;SDS011;45528;52.102;5.242;2022-08-19T03:30:41;10.9;;;8.1;;
32451;SDS011;45528;52.102;5.242;2022-08-19T03:32:19;12.1;;;8.6;;
32451;SDS011;45528;52.102;5.242;2022-08-19T03:35:31;10.5;;;8.1;;
32451;SDS011;45528;52.102;5.242;2022-08-19T03:37:08;9.5;;;8.4;;
32451;SDS011;45528;52.102;5.242;2022-08-19T03:38:49;11.0;;;8.5;;
32451;SDS011;45528;52.102;5.242;2022-08-19T03:40:30;9.1;;;8.1;;
32451;SDS011;45528;52.102;5.242;2022-08-19T03:43:46;9.6;;;8.2;;
32451;SDS011;45528;52.102;5.242;2022-08-19T03:45:23;12.0;;;8.31;;
32451;SDS011;45528;52.102;5.242;2022-08-19T03:47:00;10.5;;;8.1;;
32451;SDS011;45528;52.102;5.242;2022-08-19T03:50:14;10.5;;;8.1;;
32451;SDS011;45528;52.102;5.242;2022-08-19T03:51:52;10.21;;;7.9;;
32451;SDS011;45528;52.102;5.242;2022-08-19T03:53:30;12.6;;;8.0;;
32451;SDS011;45528;52.102;5.242;2022-08-19T03:55:08;11.9;;;8.6;;
32451;SDS011;45528;52.102;5.242;2022-08-19T03:58:24;12.6;;;9.71;;
32451;SDS011;45528;52.102;5.242;2022-08-19T04:00:05;12.5;;;9.71;;
32451;SDS011;45528;52.102;5.242;2022-08-19T04:01:42;12.6;;;9.1;;
32451;SDS011;45528;52.102;5.242;2022-08-19T04:04:55;11.7;;;9.21;;
32451;SDS011;45528;52.102;5.242;2022-08-19T04:06:32;11.8;;;9.6;;
32451;SDS011;45528;52.102;5.242;2022-08-19T04:08:11;13.0;;;9.31;;
32451;SDS011;45528;52.102;5.242;2022-08-19T04:09:47;12.1;;;9.4;;
32451;SDS011;45528;52.102;5.242;2022-08-19T04:13:04;12.5;;;9.5;;
32451;SDS011;45528;52.102;5.242;2022-08-19T04:14:41;13.7;;;9.4;;
32451;SDS011;45528;52.102;5.242;2022-08-19T04:16:17;14.3;;;10.0;;
32451;SDS011;45528;52.102;5.242;2022-08-19T04:19:32;13.0;;;10.1;;
32451;SDS011;45528;52.102;5.242;2022-08-19T04:21:15;12.0;;;9.71;;
32451;SDS011;45528;52.102;5.242;2022-08-19T04:22:52;12.3;;;9.6;;
32451;SDS011;45528;52.102;5.242;2022-08-19T04:24:29;14.1;;;10.7;;
32451;SDS011;45528;52.102;5.242;2022-08-19T04:27:46;14.2;;;10.9;;
32451;SDS011;45528;52.102;5.242;2022-08-19T04:29:24;14.0;;;11.6;;
32451;SDS011;45528;52.102;5.242;2022-08-19T04:31:01;17.0;;;12.2;;
32451;SDS011;45528;52.102;5.242;2022-08-19T04:34:17;14.0;;;11.5;;
32451;SDS011;45528;52.102;5.242;2022-08-19T04:35:58;17.11;;;12.2;;
32451;SDS011;45528;52.102;5.242;2022-08-19T04:37:34;20.7;;;14.4;;
32451;SDS011;45528;52.102;5.242;2022-08-19T04:39:11;21.5;;;15.6;;
32451;SDS011;45528;52.102;5.242;2022-08-19T04:43:48;21.2;;;15.0;;
32451;SDS011;45528;52.102;5.242;2022-08-19T04:45:23;23.6;;;16.11;;
32451;SDS011;45528;52.102;5.242;2022-08-19T04:48:37;21.2;;;15.4;;
32451;SDS011;45528;52.102;5.242;2022-08-19T04:50:15;20.5;;;14.3;;
32451;SDS011;45528;52.102;5.242;2022-08-19T04:51:54;22.0;;;14.8;;
32451;SDS011;45528;52.102;5.242;2022-08-19T04:55:10;20.3;;;14.5;;
32451;SDS011;45528;52.102;5.242;2022-08-19T04:56:49;20.6;;;15.1;;
32451;SDS011;45528;52.102;5.242;2022-08-19T04:58:27;22.9;;;15.4;;
32451;SDS011;45528;52.102;5.242;2022-08-19T05:00:04;21.1;;;15.4;;
32451;SDS011;45528;52.102;5.242;2022-08-19T05:03:18;21.1;;;15.4;;
32451;SDS011;45528;52.102;5.242;2022-08-19T05:04:56;24.3;;;16.11;;
32451;SDS011;45528;52.102;5.242;2022-08-19T05:06:34;21.3;;;15.2;;
32451;SDS011;45528;52.102;5.242;2022-08-19T05:08:12;20.11;;;14.8;;
32451;SDS011;45528;52.102;5.242;2022-08-19T05:11:27;21.3;;;14.5;;
32451;SDS011;45528;52.102;5.242;2022-08-19T05:13:09;22.5;;;14.7;;
32451;SDS011;45528;52.102;5.242;2022-08-19T05:14:47;19.61;;;14.7;;
32451;SDS011;45528;52.102;5.242;2022-08-19T05:24:29;22.2;;;14.8;;
32451;SDS011;45528;52.102;5.242;2022-08-19T05:26:06;23.0;;;15.3;;
32451;SDS011;45528;52.102;5.242;2022-08-19T05:27:42;20.9;;;14.6;;
32451;SDS011;45528;52.102;5.242;2022-08-19T05:29:19;21.5;;;15.0;;
32451;SDS011;45528;52.102;5.242;2022-08-19T05:32:34;19.7;;;14.2;;
32451;SDS011;45528;52.102;5.242;2022-08-19T05:34:11;20.9;;;14.7;;
32451;SDS011;45528;52.102;5.242;2022-08-19T05:35:49;20.9;;;14.7;;
32451;SDS011;45528;52.102;5.242;2022-08-19T05:39:03;23.2;;;15.0;;
32451;SDS011;45528;52.102;5.242;2022-08-19T05:40:41;20.9;;;15.3;;
32451;SDS011;45528;52.102;5.242;2022-08-19T05:42:20;25.2;;;16.61;;
32451;SDS011;45528;52.102;5.242;2022-08-19T05:43:57;24.4;;;17.0;;
32451;SDS011;45528;52.102;5.242;2022-08-19T05:47:15;25.2;;;16.8;;
32451;SDS011;45528;52.102;5.242;2022-08-19T05:48:53;23.8;;;16.61;;
32451;SDS011;45528;52.102;5.242;2022-08-19T05:50:30;26.4;;;17.5;;
32451;SDS011;45528;52.102;5.242;2022-08-19T05:53:46;25.2;;;19.0;;
32451;SDS011;45528;52.102;5.242;2022-08-19T05:55:23;29.3;;;18.7;;
32451;SDS011;45528;52.102;5.242;2022-08-19T05:57:00;28.9;;;20.6;;
32451;SDS011;45528;52.102;5.242;2022-08-19T05:58:37;30.7;;;21.8;;
32451;SDS011;45528;52.102;5.242;2022-08-19T06:01:54;35.4;;;22.1;;
32451;SDS011;45528;52.102;5.242;2022-08-19T06:03:31;36.71;;;23.0;;
32451;SDS011;45528;52.102;5.242;2022-08-19T06:05:09;36.1;;;23.8;;
32451;SDS011;45528;52.102;5.242;2022-08-19T06:08:24;41.3;;;24.5;;
32451;SDS011;45528;52.102;5.242;2022-08-19T06:10:02;41.7;;;26.1;;
32451;SDS011;45528;52.102;5.242;2022-08-19T06:11:40;44.5;;;28.4;;
32451;SDS011;45528;52.102;5.242;2022-08-19T06:13:20;44.8;;;27.5;;
32451;SDS011;45528;52.102;5.242;2022-08-19T06:16:35;48.5;;;29.2;;
32451;SDS011;45528;52.102;5.242;2022-08-19T06:18:14;50.9;;;31.8;;
32451;SDS011;45528;52.102;5.242;2022-08-19T06:19:51;49.8;;;30.8;;
32451;SDS011;45528;52.102;5.242;2022-08-19T06:21:29;52.1;;;31.9;;
32451;SDS011;45528;52.102;5.242;2022-08-19T06:24:43;52.6;;;31.7;;
32451;SDS011;45528;52.102;5.242;2022-08-19T06:26:20;49.8;;;31.7;;
32451;SDS011;45528;52.102;5.242;2022-08-19T06:27:57;59.5;;;34.71;;
32451;SDS011;45528;52.102;5.242;2022-08-19T06:31:14;54.4;;;32.9;;
32451;SDS011;45528;52.102;5.242;2022-08-19T06:32:52;60.3;;;34.21;;
32451;SDS011;45528;52.102;5.242;2022-08-19T06:34:30;57.0;;;33.21;;
32451;SDS011;45528;52.102;5.242;2022-08-19T06:36:15;55.4;;;32.9;;
32451;SDS011;45528;52.102;5.242;2022-08-19T06:39:31;53.6;;;32.4;;
32451;SDS011;45528;52.102;5.242;2022-08-19T06:41:14;69.11;;;38.4;;
32451;SDS011;45528;52.102;5.242;2022-08-19T06:42:50;67.0;;;35.9;;
32451;SDS011;45528;52.102;5.242;2022-08-19T06:44:29;73.11;;;39.81;;
32451;SDS011;45528;52.102;5.242;2022-08-19T06:47:48;70.41;;;39.21;;
32451;SDS011;45528;52.102;5.242;2022-08-19T06:49:30;72.3;;;40.31;;
32451;SDS011;45528;52.102;5.242;2022-08-19T06:51:08;75.3;;;40.6;;
32451;SDS011;45528;52.102;5.242;2022-08-19T06:54:20;75.3;;;40.6;;
32451;SDS011;45528;52.102;5.242;2022-08-19T06:56:00;74.61;;;39.31;;
32451;SDS011;45528;52.102;5.242;2022-08-19T06:57:36;77.5;;;40.71;;
32451;SDS011;45528;52.102;5.242;2022-08-19T06:59:19;70.5;;;37.21;;
32451;SDS011;45528;52.102;5.242;2022-08-19T07:02:39;72.5;;;37.5;;
32451;SDS011;45528;52.102;5.242;2022-08-19T07:04:16;68.41;;;37.71;;
32451;SDS011;45528;52.102;5.242;2022-08-19T07:05:55;68.1;;;38.0;;
32451;SDS011;45528;52.102;5.242;2022-08-19T07:07:34;69.61;;;37.4;;
32451;SDS011;45528;52.102;5.242;2022-08-19T07:10:53;68.3;;;37.4;;
32451;SDS011;45528;52.102;5.242;2022-08-19T07:12:29;69.0;;;38.31;;
32451;SDS011;45528;52.102;5.242;2022-08-19T07:14:07;65.7;;;35.1;;
32451;SDS011;45528;52.102;5.242;2022-08-19T07:17:22;79.2;;;39.9;;
32451;SDS011;45528;52.102;5.242;2022-08-19T07:18:59;67.5;;;36.71;;
32451;SDS011;45528;52.102;5.242;2022-08-19T07:20:37;64.0;;;36.1;;
32451;SDS011;45528;52.102;5.242;2022-08-19T07:22:14;64.3;;;35.5;;
32451;SDS011;45528;52.102;5.242;2022-08-19T07:25:28;62.8;;;35.6;;
32451;SDS011;45528;52.102;5.242;2022-08-19T07:27:04;61.6;;;34.31;;
32451;SDS011;45528;52.102;5.242;2022-08-19T07:28:43;64.1;;;35.81;;
32451;SDS011;45528;52.102;5.242;2022-08-19T07:31:59;60.4;;;34.0;;
32451;SDS011;45528;52.102;5.242;2022-08-19T07:33:37;58.9;;;34.6;;
32451;SDS011;45528;52.102;5.242;2022-08-19T07:35:14;60.6;;;34.31;;
32451;SDS011;45528;52.102;5.242;2022-08-19T07:36:50;60.4;;;35.4;;
32451;SDS011;45528;52.102;5.242;2022-08-19T07:40:05;61.8;;;34.31;;
32451;SDS011;45528;52.102;5.242;2022-08-19T07:41:43;57.4;;;33.1;;
32451;SDS011;45528;52.102;5.242;2022-08-19T07:43:24;56.4;;;33.71;;
32451;SDS011;45528;52.102;5.242;2022-08-19T07:46:45;55.9;;;32.9;;
32451;SDS011;45528;52.102;5.242;2022-08-19T07:48:28;55.6;;;33.9;;
32451;SDS011;45528;52.102;5.242;2022-08-19T07:50:06;53.6;;;32.4;;
32451;SDS011;45528;52.102;5.242;2022-08-19T07:51:47;58.0;;;33.3;;
32451;SDS011;45528;52.102;5.242;2022-08-19T07:55:04;58.0;;;33.4;;
32451;SDS011;45528;52.102;5.242;2022-08-19T07:56:42;53.1;;;31.9;;
32451;SDS011;45528;52.102;5.242;2022-08-19T07:58:19;53.1;;;32.21;;
32451;SDS011;45528;52.102;5.242;2022-08-19T07:59:57;52.9;;;31.2;;
32451;SDS011;45528;52.102;5.242;2022-08-19T08:03:12;50.9;;;30.4;;
32451;SDS011;45528;52.102;5.242;2022-08-19T08:09:29;47.9;;;28.6;;
32451;SDS011;45528;52.102;5.242;2022-08-19T08:11:08;47.7;;;28.2;;
32451;SDS011;45528;52.102;5.242;2022-08-19T08:12:45;45.2;;;28.0;;
32451;SDS011;45528;52.102;5.242;2022-08-19T08:16:03;46.0;;;28.1;;
32451;SDS011;45528;52.102;5.242;2022-08-19T08:17:40;45.6;;;27.8;;
32451;SDS011;45528;52.102;5.242;2022-08-19T08:19:18;45.6;;;27.8;;
32451;SDS011;45528;52.102;5.242;2022-08-19T08:20:57;46.6;;;26.6;;
32451;SDS011;45528;52.102;5.242;2022-08-19T08:25:14;45.2;;;28.5;;
32451;SDS011;45528;52.102;5.242;2022-08-19T08:28:35;47.1;;;27.8;;
32451;SDS011;45528;52.102;5.242;2022-08-19T08:30:13;45.1;;;27.8;;
32451;SDS011;45528;52.102;5.242;2022-08-19T08:31:53;47.4;;;29.7;;
32451;SDS011;45528;52.102;5.242;2022-08-19T08:33:30;43.5;;;28.0;;
32451;SDS011;45528;52.102;5.242;2022-08-19T08:36:48;43.8;;;27.6;;
32451;SDS011;45528;52.102;5.242;2022-08-19T08:38:25;45.7;;;27.9;;
32451;SDS011;45528;52.102;5.242;2022-08-19T08:40:02;38.71;;;27.0;;
32451;SDS011;45528;52.102;5.242;2022-08-19T08:41:44;45.6;;;29.3;;
32451;SDS011;45528;52.102;5.242;2022-08-19T08:45:15;50.4;;;29.4;;
32451;SDS011;45528;52.102;5.242;2022-08-19T08:46:55;45.6;;;28.7;;
32451;SDS011;45528;52.102;5.242;2022-08-19T08:48:37;46.6;;;28.4;;
32451;SDS011;45528;52.102;5.242;2022-08-19T08:50:22;41.1;;;26.9;;
32451;SDS011;45528;52.102;5.242;2022-08-19T08:52:05;45.8;;;29.4;;
32451;SDS011;45528;52.102;5.242;2022-08-19T08:55:27;42.1;;;28.1;;
32451;SDS011;45528;52.102;5.242;2022-08-19T08:57:07;42.1;;;27.6;;
32451;SDS011;45528;52.102;5.242;2022-08-19T08:58:56;37.31;;;25.9;;
32451;SDS011;45528;52.102;5.242;2022-08-19T09:00:38;43.4;;;27.5;;
32451;SDS011;45528;52.102;5.242;2022-08-19T09:03:56;42.4;;;27.5;;
32451;SDS011;45528;52.102;5.242;2022-08-19T09:05:35;36.4;;;25.5;;
32451;SDS011;45528;52.102;5.242;2022-08-19T09:07:30;32.21;;;23.4;;
32451;SDS011;45528;52.102;5.242;2022-08-19T09:09:32;35.4;;;23.8;;
32451;SDS011;45528;52.102;5.242;2022-08-19T09:11:15;35.31;;;24.6;;
32451;SDS011;45528;52.102;5.242;2022-08-19T09:13:09;35.81;;;23.8;;
32451;SDS011;45528;52.102;5.242;2022-08-19T09:16:41;36.4;;;23.7;;
32451;SDS011;45528;52.102;5.242;2022-08-19T09:18:18;43.4;;;25.6;;
32451;SDS011;45528;52.102;5.242;2022-08-19T09:19:56;38.0;;;23.2;;
32451;SDS011;45528;52.102;5.242;2022-08-19T09:21:35;36.81;;;24.3;;
32451;SDS011;45528;52.102;5.242;2022-08-19T09:24:48;33.3;;;23.7;;
32451;SDS011;45528;52.102;5.242;2022-08-19T09:26:24;40.1;;;23.7;;
32451;SDS011;45528;52.102;5.242;2022-08-19T09:28:03;35.4;;;24.8;;
32451;SDS011;45528;52.102;5.242;2022-08-19T09:31:16;36.4;;;25.0;;
32451;SDS011;45528;52.102;5.242;2022-08-19T09:33:00;36.6;;;23.7;;
32451;SDS011;45528;52.102;5.242;2022-08-19T09:34:37;30.6;;;23.1;;
32451;SDS011;45528;52.102;5.242;2022-08-19T09:36:14;31.1;;;22.6;;
32451;SDS011;45528;52.102;5.242;2022-08-19T09:39:30;30.6;;;23.4;;
32451;SDS011;45528;52.102;5.242;2022-08-19T09:41:08;31.1;;;23.2;;
32451;SDS011;45528;52.102;5.242;2022-08-19T09:42:48;38.6;;;23.8;;
32451;SDS011;45528;52.102;5.242;2022-08-19T09:44:24;36.81;;;25.3;;
32451;SDS011;45528;52.102;5.242;2022-08-19T09:47:38;36.21;;;25.0;;
32451;SDS011;45528;52.102;5.242;2022-08-19T09:49:14;31.7;;;23.7;;
32451;SDS011;45528;52.102;5.242;2022-08-19T09:50:52;30.9;;;23.5;;
32451;SDS011;45528;52.102;5.242;2022-08-19T09:54:04;32.71;;;22.8;;
32451;SDS011;45528;52.102;5.242;2022-08-19T09:55:41;32.9;;;22.7;;
32451;SDS011;45528;52.102;5.242;2022-08-19T09:57:18;32.1;;;24.2;;
32451;SDS011;45528;52.102;5.242;2022-08-19T10:00:30;33.4;;;23.9;;
32451;SDS011;45528;52.102;5.242;2022-08-19T10:02:09;36.31;;;23.7;;
32451;SDS011;45528;52.102;5.242;2022-08-19T10:03:47;31.6;;;21.9;;
32451;SDS011;45528;52.102;5.242;2022-08-19T10:05:56;33.3;;;24.3;;
32451;SDS011;45528;52.102;5.242;2022-08-19T10:07:35;33.3;;;24.3;;
32451;SDS011;45528;52.102;5.242;2022-08-19T10:10:50;37.71;;;26.3;;
32451;SDS011;45528;52.102;5.242;2022-08-19T10:12:27;32.4;;;24.1;;
32451;SDS011;45528;52.102;5.242;2022-08-19T10:14:05;35.81;;;25.7;;
32451;SDS011;45528;52.102;5.242;2022-08-19T10:17:20;36.21;;;25.2;;
32451;SDS011;45528;52.102;5.242;2022-08-19T10:18:56;41.6;;;28.8;;
32451;SDS011;45528;52.102;5.242;2022-08-19T10:20:35;37.0;;;28.4;;
32451;SDS011;45528;52.102;5.242;2022-08-19T10:22:14;40.1;;;27.4;;
32451;SDS011;45528;52.102;5.242;2022-08-19T10:25:32;35.1;;;27.5;;
32451;SDS011;45528;52.102;5.242;2022-08-19T10:27:09;35.0;;;26.5;;
32451;SDS011;45528;52.102;5.242;2022-08-19T10:28:46;35.6;;;26.1;;
32451;SDS011;45528;52.102;5.242;2022-08-19T10:30:23;41.0;;;26.7;;
32451;SDS011;45528;52.102;5.242;2022-08-19T10:33:38;34.4;;;27.2;;
32451;SDS011;45528;52.102;5.242;2022-08-19T10:35:16;40.0;;;28.2;;
32451;SDS011;45528;52.102;5.242;2022-08-19T10:36:52;40.81;;;28.7;;
32451;SDS011;45528;52.102;5.242;2022-08-19T10:40:06;38.4;;;29.1;;
32451;SDS011;45528;52.102;5.242;2022-08-19T10:41:44;39.0;;;29.4;;
32451;SDS011;45528;52.102;5.242;2022-08-19T10:43:20;41.2;;;29.8;;
32451;SDS011;45528;52.102;5.242;2022-08-19T10:46:38;44.2;;;28.1;;
32451;SDS011;45528;52.102;5.242;2022-08-19T10:48:16;38.9;;;27.8;;
32451;SDS011;45528;52.102;5.242;2022-08-19T10:52:46;43.4;;;29.6;;
32451;SDS011;45528;52.102;5.242;2022-08-19T10:56:50;40.4;;;28.0;;
32451;SDS011;45528;52.102;5.242;2022-08-19T10:58:26;45.1;;;29.4;;
32451;SDS011;45528;52.102;5.242;2022-08-19T11:00:03;37.21;;;27.7;;
32451;SDS011;45528;52.102;5.242;2022-08-19T11:03:19;37.6;;;29.1;;
32451;SDS011;45528;52.102;5.242;2022-08-19T11:04:56;39.4;;;29.5;;
32451;SDS011;45528;52.102;5.242;2022-08-19T11:06:32;43.7;;;29.1;;
32451;SDS011;45528;52.102;5.242;2022-08-19T11:08:11;35.81;;;27.0;;
32451;SDS011;45528;52.102;5.242;2022-08-19T11:11:24;40.31;;;29.4;;
32451;SDS011;45528;52.102;5.242;2022-08-19T11:13:00;40.5;;;29.2;;
32451;SDS011;45528;52.102;5.242;2022-08-19T11:14:36;38.0;;;27.2;;
32451;SDS011;45528;52.102;5.242;2022-08-19T11:17:54;46.3;;;30.9;;
32451;SDS011;45528;52.102;5.242;2022-08-19T11:19:31;41.4;;;29.0;;
32451;SDS011;45528;52.102;5.242;2022-08-19T11:21:10;42.2;;;29.1;;
32451;SDS011;45528;52.102;5.242;2022-08-19T11:22:49;40.31;;;28.4;;
32451;SDS011;45528;52.102;5.242;2022-08-19T11:26:04;40.81;;;28.0;;
32451;SDS011;45528;52.102;5.242;2022-08-19T11:27:42;35.6;;;26.3;;
32451;SDS011;45528;52.102;5.242;2022-08-19T11:29:20;35.6;;;26.3;;
32451;SDS011;45528;52.102;5.242;2022-08-19T11:32:36;36.6;;;27.0;;
32451;SDS011;45528;52.102;5.242;2022-08-19T11:34:14;39.5;;;28.0;;
32451;SDS011;45528;52.102;5.242;2022-08-19T11:35:56;43.5;;;29.2;;
32451;SDS011;45528;52.102;5.242;2022-08-19T11:37:37;38.6;;;27.6;;
32451;SDS011;45528;52.102;5.242;2022-08-19T11:40:54;39.31;;;26.9;;
32451;SDS011;45528;52.102;5.242;2022-08-19T11:43:04;36.6;;;26.7;;
32451;SDS011;45528;52.102;5.242;2022-08-19T11:44:40;35.71;;;25.9;;
32451;SDS011;45528;52.102;5.242;2022-08-19T11:46:17;34.6;;;27.5;;
32451;SDS011;45528;52.102;5.242;2022-08-19T11:47:53;38.21;;;27.6;;
32451;SDS011;45528;52.102;5.242;2022-08-19T11:51:09;35.5;;;26.2;;
32451;SDS011;45528;52.102;5.242;2022-08-19T11:52:53;36.31;;;26.1;;
32451;SDS011;45528;52.102;5.242;2022-08-19T11:54:30;33.5;;;25.4;;
32451;SDS011;45528;52.102;5.242;2022-08-19T11:57:46;34.6;;;25.0;;
32451;SDS011;45528;52.102;5.242;2022-08-19T11:59:22;33.5;;;25.6;;
32451;SDS011;45528;52.102;5.242;2022-08-19T12:00:58;32.9;;;25.1;;
32451;SDS011;45528;52.102;5.242;2022-08-19T12:02:35;33.71;;;24.6;;
32451;SDS011;45528;52.102;5.242;2022-08-19T12:05:48;38.9;;;26.3;;
32451;SDS011;45528;52.102;5.242;2022-08-19T12:07:25;35.71;;;27.0;;
32451;SDS011;45528;52.102;5.242;2022-08-19T12:09:04;36.9;;;27.1;;
32451;SDS011;45528;52.102;5.242;2022-08-19T12:12:19;34.0;;;26.0;;
32451;SDS011;45528;52.102;5.242;2022-08-19T12:13:57;38.71;;;25.9;;
32451;SDS011;45528;52.102;5.242;2022-08-19T12:15:34;38.71;;;27.8;;
32451;SDS011;45528;52.102;5.242;2022-08-19T12:17:11;35.81;;;26.2;;
32451;SDS011;45528;52.102;5.242;2022-08-19T12:20:27;36.9;;;25.8;;
32451;SDS011;45528;52.102;5.242;2022-08-19T12:22:05;33.5;;;27.0;;
32451;SDS011;45528;52.102;5.242;2022-08-19T12:23:41;34.71;;;26.2;;
32451;SDS011;45528;52.102;5.242;2022-08-19T12:26:56;31.9;;;24.4;;
32451;SDS011;45528;52.102;5.242;2022-08-19T12:28:33;32.8;;;25.5;;
32451;SDS011;45528;52.102;5.242;2022-08-19T12:30:10;35.1;;;24.8;;
32451;SDS011;45528;52.102;5.242;2022-08-19T12:31:48;32.6;;;24.4;;
32451;SDS011;45528;52.102;5.242;2022-08-19T12:35:05;31.8;;;23.5;;
32451;SDS011;45528;52.102;5.242;2022-08-19T12:36:42;31.0;;;23.3;;
32451;SDS011;45528;52.102;5.242;2022-08-19T12:38:18;35.5;;;23.7;;
32451;SDS011;45528;52.102;5.242;2022-08-19T12:41:32;29.1;;;21.9;;
32451;SDS011;45528;52.102;5.242;2022-08-19T12:43:09;28.1;;;20.41;;
32451;SDS011;45528;52.102;5.242;2022-08-19T12:44:45;25.6;;;20.11;;
32451;SDS011;45528;52.102;5.242;2022-08-19T12:47:57;30.7;;;21.2;;
32451;SDS011;45528;52.102;5.242;2022-08-19T12:49:36;24.4;;;19.61;;
32451;SDS011;45528;52.102;5.242;2022-08-19T12:51:14;22.4;;;17.91;;
32451;SDS011;45528;52.102;5.242;2022-08-19T12:52:53;18.41;;;16.4;;
32451;SDS011;45528;52.102;5.242;2022-08-19T12:56:07;20.5;;;14.7;;
32451;SDS011;45528;52.102;5.242;2022-08-19T12:57:48;16.9;;;12.8;;